メインページ
METAR-TAF:

METAR-TAF

空港 :

クウェート, クウェート

クウェート国際空港

緯度: 29-13N, 経度: 047-59E, 海抜: 55m

現時点の気象観測

当レポートは36分前の01:00(UTC)に作成
無風
気温 9°C
湿度 71%
気圧 1016 hPa
視程10km以上
1,500メートル以下は雲なし、積乱雲なし

METAR: OKBK 180100Z 00000KT CAVOK 09/04 Q1016 NOSIG

時間: 04:36 (01:36 UTC)

予報

当レポートは8時間51分前の16:45(UTC)に作成
予報は17日の 18時(UTC)から 18日の 24時(UTC)まで有効
変向風 3kt
視程: 8000m
18日の 14時(UTC)から 18日の 16時(UTC)まで徐々に
南/南東の風 12kt

TAF: OKBK 171645Z 1718/1824 VRB03KT 8000 NSC BECMG 1814/1816 15012KT

4,000以上の空港の気象観測と天気予報(METAR報とTAF報)

利用可能な観測所は地図上に黄色い丸と赤い丸で示す。

丸の上にカーソルを重ねると観測所名を参照できる。

次にクリックすると気象観測と天気予報を参照できる。

マップの切り替え:黒色「×」印の緑ボタンをクリックして拡大、「-」印の緑ボタンをクリックして縮小、緑色の三角印をクリックして隣りの地図に切り替え


METAR-TAF: